createdAt,value
2018-12-23T00:00:47.100Z,99102.37
2018-12-23T00:02:58.536Z,99100.22
2018-12-23T00:05:11.621Z,99104.90
2018-12-23T00:07:22.448Z,99100.10
2018-12-23T00:09:33.552Z,99097.12
2018-12-23T00:11:44.423Z,99088.86
2018-12-23T00:13:55.324Z,99095.34
2018-12-23T00:16:06.214Z,99091.88
2018-12-23T00:18:17.068Z,99084.64
2018-12-23T00:20:27.948Z,99087.11
2018-12-23T00:22:38.802Z,99090.58
2018-12-23T00:24:49.649Z,99098.08
2018-12-23T00:27:00.541Z,99101.58
2018-12-23T00:29:11.417Z,99106.19
2018-12-23T00:31:22.300Z,99107.59
2018-12-23T00:33:33.167Z,99122.53
2018-12-23T00:35:44.019Z,99126.34
2018-12-23T00:37:54.889Z,99126.27
2018-12-23T00:40:05.945Z,99143.34
2018-12-23T00:42:16.829Z,99139.75
2018-12-23T00:44:27.659Z,99137.16
2018-12-23T00:46:38.540Z,99129.88
2018-12-23T00:48:49.521Z,99141.95
2018-12-23T00:51:00.361Z,99140.70
2018-12-23T00:53:11.270Z,99145.95
2018-12-23T00:55:22.105Z,99146.63
2018-12-23T00:57:32.969Z,99145.36
2018-12-23T00:59:43.868Z,99153.77
2018-12-23T01:01:54.705Z,99159.44
2018-12-23T01:04:05.557Z,99159.40
2018-12-23T01:06:16.388Z,99163.95
2018-12-23T01:08:27.236Z,99163.56
2018-12-23T01:10:38.090Z,99161.19
2018-12-23T01:12:48.924Z,99158.25
2018-12-23T01:14:59.777Z,99166.54
2018-12-23T01:17:10.730Z,99171.36
2018-12-23T01:19:21.615Z,99170.00
2018-12-23T01:21:32.438Z,99177.45
2018-12-23T01:23:43.306Z,99186.61
2018-12-23T01:25:54.136Z,99182.34
2018-12-23T01:28:04.961Z,99185.42
2018-12-23T01:30:15.807Z,99187.37
2018-12-23T01:32:26.635Z,99183.77
2018-12-23T01:34:37.488Z,99186.81
2018-12-23T01:36:48.333Z,99185.13
2018-12-23T01:38:59.184Z,99188.20
2018-12-23T01:41:10.108Z,99189.47
2018-12-23T01:43:20.993Z,99184.33
2018-12-23T01:45:31.958Z,99183.00
2018-12-23T01:47:42.793Z,99188.17
2018-12-23T01:49:53.691Z,99189.60
2018-12-23T01:52:04.570Z,99188.38
2018-12-23T01:54:15.653Z,99184.05
2018-12-23T01:56:26.580Z,99186.17
2018-12-23T01:58:37.393Z,99192.33
2018-12-23T02:00:48.233Z,99189.67
2018-12-23T02:02:59.073Z,99184.93
2018-12-23T02:05:09.929Z,99189.43
2018-12-23T02:07:20.772Z,99187.04
2018-12-23T02:09:31.646Z,99189.81
2018-12-23T02:11:42.485Z,99188.13
2018-12-23T02:13:53.304Z,99185.55
2018-12-23T02:16:04.153Z,99186.84
2018-12-23T02:18:14.978Z,99179.08
2018-12-23T02:20:26.064Z,99177.80
2018-12-23T02:22:36.883Z,99182.12
2018-12-23T02:24:47.747Z,99185.65
2018-12-23T02:26:58.578Z,99186.09
2018-12-23T02:29:09.428Z,99183.97
2018-12-23T02:31:20.493Z,99185.65
2018-12-23T02:33:31.485Z,99178.34
2018-12-23T02:35:42.334Z,99186.88
2018-12-23T02:37:53.482Z,99181.16
2018-12-23T02:40:04.448Z,99186.33
2018-12-23T02:42:15.278Z,99188.98
2018-12-23T02:44:26.132Z,99182.67
2018-12-23T02:46:37.006Z,99172.78
2018-12-23T02:48:47.857Z,99183.42
2018-12-23T02:50:58.685Z,99179.57
2018-12-23T02:53:09.616Z,99183.45
2018-12-23T02:55:20.446Z,99174.37
2018-12-23T02:57:31.312Z,99180.22
2018-12-23T02:59:42.134Z,99177.27
2018-12-23T03:01:52.982Z,99175.56
2018-12-23T03:04:03.819Z,99179.92
2018-12-23T03:06:14.868Z,99172.10
2018-12-23T03:08:25.763Z,99183.16
2018-12-23T03:10:36.659Z,99182.25
2018-12-23T03:12:47.634Z,99179.28
2018-12-23T03:14:58.461Z,99179.73
2018-12-23T03:17:09.307Z,99182.54
2018-12-23T03:19:20.298Z,99177.08
2018-12-23T03:21:31.112Z,99176.17
2018-12-23T03:23:41.970Z,99179.66
2018-12-23T03:25:52.932Z,99189.46
2018-12-23T03:28:03.894Z,99175.30
2018-12-23T03:30:14.726Z,99182.16
2018-12-23T03:32:25.691Z,99180.92
2018-12-23T03:34:36.636Z,99175.11
2018-12-23T03:36:47.462Z,99175.20
2018-12-23T03:38:58.325Z,99178.18
2018-12-23T03:41:09.159Z,99181.90
2018-12-23T03:43:20.006Z,99180.86
2018-12-23T03:45:30.885Z,99177.82
2018-12-23T03:47:41.700Z,99179.11
2018-12-23T03:49:52.544Z,99174.88
2018-12-23T03:52:03.369Z,99179.50
2018-12-23T03:54:14.201Z,99184.64
2018-12-23T03:56:25.142Z,99185.31
2018-12-23T03:58:36.009Z,99176.27
2018-12-23T04:00:46.974Z,99181.89
2018-12-23T04:02:57.797Z,99183.15
2018-12-23T04:05:08.645Z,99177.10
2018-12-23T04:07:19.470Z,99177.45
2018-12-23T04:09:30.415Z,99175.25
2018-12-23T04:11:41.244Z,99173.58
2018-12-23T04:13:52.056Z,99169.70
2018-12-23T04:16:02.905Z,99176.20
2018-12-23T04:18:13.750Z,99177.94
2018-12-23T04:20:24.581Z,99176.72
2018-12-23T04:22:35.437Z,99179.11
2018-12-23T04:24:46.380Z,99183.16
2018-12-23T04:26:57.203Z,99178.98
2018-12-23T04:29:08.024Z,99178.80
2018-12-23T04:31:18.877Z,99184.29
2018-12-23T04:33:29.699Z,99186.78
2018-12-23T04:35:40.613Z,99186.84
2018-12-23T04:37:51.428Z,99179.53
2018-12-23T04:40:02.540Z,99173.11
2018-12-23T04:42:13.467Z,99177.05
2018-12-23T04:44:24.298Z,99183.16
2018-12-23T04:46:35.256Z,99182.67
2018-12-23T04:48:46.421Z,99173.11
2018-12-23T04:50:57.268Z,99170.06
2018-12-23T04:53:08.107Z,99181.58
2018-12-23T04:55:18.922Z,99185.74
2018-12-23T04:57:29.769Z,99186.94
2018-12-23T04:59:40.601Z,99171.36
2018-12-23T05:01:51.446Z,99176.08
2018-12-23T05:04:02.433Z,99179.50
2018-12-23T05:06:13.285Z,99183.34
2018-12-23T05:08:24.093Z,99179.86
2018-12-23T05:10:34.904Z,99177.78
2018-12-23T05:12:45.749Z,99179.31
2018-12-23T05:14:56.641Z,99173.91
2018-12-23T05:17:07.487Z,99178.25
2018-12-23T05:19:18.310Z,99183.87
2018-12-23T05:21:29.265Z,99183.06
2018-12-23T05:23:40.098Z,99186.48
2018-12-23T05:25:51.059Z,99186.03
2018-12-23T05:28:01.897Z,99188.23
2018-12-23T05:30:12.713Z,99185.94
2018-12-23T05:32:23.759Z,99187.13
2018-12-23T05:34:34.592Z,99183.61
2018-12-23T05:36:52.439Z,99187.72
2018-12-23T05:38:58.381Z,99185.42
2018-12-23T05:41:09.216Z,99188.07
2018-12-23T05:43:20.056Z,99191.39
2018-12-23T05:45:30.897Z,99187.88
2018-12-23T05:47:41.800Z,99176.68
2018-12-23T05:49:52.621Z,99187.80
2018-12-23T05:52:03.474Z,99191.78
2018-12-23T05:54:14.293Z,99198.19
2018-12-23T05:56:25.096Z,99197.70
2018-12-23T05:58:35.929Z,99195.89
2018-12-23T06:00:46.745Z,99196.80
2018-12-23T06:02:57.579Z,99203.65
2018-12-23T06:05:08.413Z,99200.19
2018-12-23T06:07:19.221Z,99192.81
2018-12-23T06:09:30.063Z,99204.45
2018-12-23T06:11:40.899Z,99206.20
2018-12-23T06:13:51.761Z,99196.76
2018-12-23T06:16:02.629Z,99199.48
2018-12-23T06:18:13.458Z,99211.96
2018-12-23T06:20:24.311Z,99206.85
2018-12-23T06:22:35.130Z,99194.79
2018-12-23T06:24:45.979Z,99197.86
2018-12-23T06:26:56.836Z,99202.75
2018-12-23T06:29:07.677Z,99192.40
2018-12-23T06:31:18.504Z,99184.25
2018-12-23T06:33:29.483Z,99191.20
2018-12-23T06:35:40.419Z,99193.41
2018-12-23T06:37:51.300Z,99192.14
2018-12-23T06:40:02.284Z,99190.11
2018-12-23T06:42:13.126Z,99198.41
2018-12-23T06:44:23.964Z,99200.55
2018-12-23T06:46:34.818Z,99207.53
2018-12-23T06:48:45.709Z,99213.61
2018-12-23T06:50:57.039Z,99215.74
2018-12-23T06:53:07.872Z,99215.64
2018-12-23T06:55:18.736Z,99219.17
2018-12-23T06:57:29.591Z,99217.69
2018-12-23T06:59:40.421Z,99219.47
2018-12-23T07:01:51.263Z,99220.37
2018-12-23T07:04:02.109Z,99215.64
2018-12-23T07:06:12.955Z,99219.95
2018-12-23T07:08:23.808Z,99222.05
2018-12-23T07:10:34.636Z,99217.33
2018-12-23T07:12:45.471Z,99214.68
2018-12-23T07:14:56.293Z,99217.63
2018-12-23T07:17:07.249Z,99225.31
2018-12-23T07:19:18.212Z,99231.01
2018-12-23T07:21:29.157Z,99234.44
2018-12-23T07:23:39.980Z,99231.01
2018-12-23T07:25:50.837Z,99234.50
2018-12-23T07:28:01.660Z,99229.71
2018-12-23T07:30:12.508Z,99224.16
2018-12-23T07:32:23.382Z,99229.27
2018-12-23T07:34:34.236Z,99219.37
2018-12-23T07:36:49.458Z,99222.95
2018-12-23T07:38:57.959Z,99229.71
2018-12-23T07:41:08.831Z,99224.89
2018-12-23T07:43:19.684Z,99221.41
2018-12-23T07:45:30.540Z,99227.88
2018-12-23T07:47:41.405Z,99228.27
2018-12-23T07:49:52.227Z,99230.69
2018-12-23T07:52:03.090Z,99225.83
2018-12-23T07:54:13.914Z,99226.55
2018-12-23T07:56:24.748Z,99223.05
2018-12-23T07:58:35.700Z,99215.30
2018-12-23T08:00:46.538Z,99214.87
2018-12-23T08:02:57.427Z,99214.42
2018-12-23T08:05:08.350Z,99217.39
2018-12-23T08:07:19.207Z,99217.29
2018-12-23T08:09:30.043Z,99216.67
2018-12-23T08:11:40.896Z,99215.09
2018-12-23T08:13:51.853Z,99214.50
2018-12-23T08:16:04.741Z,99220.64
2018-12-23T08:18:15.575Z,99217.66
2018-12-23T08:20:26.424Z,99219.73
2018-12-23T08:22:37.285Z,99222.74
2018-12-23T08:24:48.117Z,99220.09
2018-12-23T08:26:58.957Z,99216.03
2018-12-23T08:29:09.821Z,99221.56
2018-12-23T08:31:20.662Z,99220.66
2018-12-23T08:33:31.625Z,99209.08
2018-12-23T08:35:42.456Z,99211.45
2018-12-23T08:37:53.317Z,99210.94
2018-12-23T08:40:04.164Z,99212.52
2018-12-23T08:42:15.053Z,99216.29
2018-12-23T08:44:25.912Z,99212.02
2018-12-23T08:46:39.302Z,99212.27
2018-12-23T08:48:49.616Z,99211.36
2018-12-23T08:51:00.520Z,99213.39
2018-12-23T08:53:11.371Z,99203.94
2018-12-23T08:55:22.244Z,99208.10
2018-12-23T08:57:33.085Z,99217.83
2018-12-23T08:59:44.000Z,99211.14
2018-12-23T09:01:54.858Z,99211.91
2018-12-23T09:04:05.692Z,99207.98
2018-12-23T09:06:16.558Z,99207.60
2018-12-23T09:08:27.397Z,99202.84
2018-12-23T09:10:38.256Z,99206.31
2018-12-23T09:12:49.090Z,99206.13
2018-12-23T09:14:59.972Z,99204.72
2018-12-23T09:17:10.815Z,99199.02
2018-12-23T09:19:21.665Z,99192.66
2018-12-23T09:21:32.549Z,99197.59
2018-12-23T09:23:43.380Z,99192.37
2018-12-23T09:25:54.229Z,99193.83
2018-12-23T09:28:05.078Z,99192.23
2018-12-23T09:30:15.952Z,99191.20
2018-12-23T09:32:26.816Z,99184.11
2018-12-23T09:34:37.813Z,99184.70
2018-12-23T09:36:48.862Z,99186.14
2018-12-23T09:38:59.709Z,99185.30
2018-12-23T09:41:10.588Z,99178.94
2018-12-23T09:43:21.445Z,99176.04
2018-12-23T09:45:32.292Z,99172.61
2018-12-23T09:47:43.154Z,99165.33
2018-12-23T09:49:53.992Z,99161.95
2018-12-23T09:52:04.952Z,99153.12
2018-12-23T09:54:15.794Z,99155.30
2018-12-23T09:56:26.637Z,99151.73
2018-12-23T09:58:37.502Z,99147.80
2018-12-23T10:00:48.356Z,99143.19
2018-12-23T10:02:59.234Z,99140.06
2018-12-23T10:05:10.114Z,99140.98
2018-12-23T10:07:20.959Z,99142.31
2018-12-23T10:09:31.792Z,99139.80
2018-12-23T10:11:42.661Z,99137.08
2018-12-23T10:13:53.529Z,99137.13
2018-12-23T10:16:04.379Z,99134.94
2018-12-23T10:18:15.260Z,99132.65
2018-12-23T10:20:26.109Z,99129.88
2018-12-23T10:22:36.971Z,99126.11
2018-12-23T10:24:47.841Z,99127.28
2018-12-23T10:26:58.668Z,99124.36
2018-12-23T10:29:09.538Z,99123.73
2018-12-23T10:31:20.397Z,99120.34
2018-12-23T10:33:31.247Z,99113.73
2018-12-23T10:35:42.096Z,99117.80
2018-12-23T10:37:52.946Z,99113.90
2018-12-23T10:40:05.180Z,99115.15
2018-12-23T10:42:16.012Z,99106.18
2018-12-23T10:44:26.895Z,99104.16
2018-12-23T10:46:37.750Z,99097.67
2018-12-23T10:48:48.628Z,99092.27
2018-12-23T10:50:59.478Z,99084.02
2018-12-23T10:53:10.340Z,99083.51
2018-12-23T10:55:21.220Z,99069.44
2018-12-23T10:57:32.108Z,99069.69
2018-12-23T10:59:42.997Z,99068.44
2018-12-23T11:01:53.949Z,99069.28
2018-12-23T11:04:04.855Z,99058.52
2018-12-23T11:06:15.715Z,99060.19
2018-12-23T11:08:27.065Z,99063.06
2018-12-23T11:10:38.241Z,99057.65
2018-12-23T11:12:49.076Z,99055.52
2018-12-23T11:14:59.950Z,99044.88
2018-12-23T11:17:10.792Z,99044.88
2018-12-23T11:19:21.764Z,99037.71
2018-12-23T11:21:32.623Z,99035.02
2018-12-23T11:23:43.571Z,99029.44
2018-12-23T11:25:54.429Z,99027.14
2018-12-23T11:28:05.316Z,99015.41
2018-12-23T11:30:16.173Z,99017.21
2018-12-23T11:32:27.059Z,99013.08
2018-12-23T11:34:37.934Z,99007.05
2018-12-23T11:36:48.782Z,98998.74
2018-12-23T11:38:59.625Z,98999.12
2018-12-23T11:41:10.486Z,98993.60
2018-12-23T11:43:21.321Z,98996.06
2018-12-23T11:45:32.178Z,98995.92
2018-12-23T11:47:43.035Z,98996.20
2018-12-23T11:49:53.881Z,98987.39
2018-12-23T11:52:04.762Z,98983.12
2018-12-23T11:54:15.599Z,98982.61
2018-12-23T11:56:26.474Z,98979.77
2018-12-23T11:58:37.306Z,98983.55
2018-12-23T12:00:48.181Z,98974.61
2018-12-23T12:02:59.068Z,98976.93
2018-12-23T12:05:09.927Z,98977.98
2018-12-23T12:07:20.779Z,98968.53
2018-12-23T12:09:31.640Z,98970.34
2018-12-23T12:11:42.534Z,98964.06
2018-12-23T12:13:53.398Z,98954.98
2018-12-23T12:16:04.283Z,98952.02
2018-12-23T12:18:15.157Z,98946.84
2018-12-23T12:20:25.974Z,98943.38
2018-12-23T12:22:36.844Z,98939.03
2018-12-23T12:24:47.689Z,98934.44
2018-12-23T12:26:58.564Z,98937.12
2018-12-23T12:29:10.933Z,98926.09
2018-12-23T12:31:22.070Z,98925.70
2018-12-23T12:33:32.964Z,98919.27
2018-12-23T12:36:19.790Z,98910.84
2018-12-23T12:38:30.735Z,98914.77
2018-12-23T12:40:41.657Z,98910.17
2018-12-23T12:42:52.687Z,98909.33
2018-12-23T12:45:45.260Z,98908.03
2018-12-23T12:47:56.228Z,98898.84
2018-12-23T12:50:07.167Z,98896.39
2018-12-23T12:52:18.120Z,98892.36
2018-12-23T12:54:29.079Z,98886.14
2018-12-23T12:56:40.050Z,98878.83
2018-12-23T12:58:51.010Z,98871.42
2018-12-23T13:01:01.948Z,98873.45
2018-12-23T13:03:12.886Z,98859.73
2018-12-23T13:05:23.852Z,98859.73
2018-12-23T13:07:34.762Z,98852.41
2018-12-23T13:09:45.699Z,98859.73
2018-12-23T13:11:56.640Z,98846.31
2018-12-23T13:14:07.609Z,98844.22
2018-12-23T13:16:18.573Z,98838.20
2018-12-23T13:18:29.499Z,98842.42
2018-12-23T13:20:40.468Z,98842.09
2018-12-23T13:22:51.408Z,98833.02
2018-12-23T13:25:02.567Z,98827.13
2018-12-23T13:27:13.524Z,98817.22
2018-12-23T13:29:24.511Z,98817.30
2018-12-23T13:31:35.449Z,98810.50
2018-12-23T13:33:46.382Z,98811.17
2018-12-23T13:35:57.396Z,98806.37
2018-12-23T13:38:08.351Z,98799.52
2018-12-23T13:41:00.957Z,98793.87
2018-12-23T13:43:53.537Z,98796.05
2018-12-23T13:46:46.193Z,98794.59
2018-12-23T13:49:36.869Z,98782.98
2018-12-23T13:52:27.542Z,98776.34
2018-12-23T13:55:18.197Z,98775.69
2018-12-23T13:58:08.864Z,98759.20
2018-12-23T14:00:59.539Z,98754.98
2018-12-23T14:03:50.205Z,98748.72
2018-12-23T14:06:40.891Z,98740.49
2018-12-23T14:09:33.499Z,98719.06
2018-12-23T14:12:04.297Z,98711.89
2018-12-23T14:14:15.229Z,98711.00
2018-12-23T14:16:26.169Z,98697.40
2018-12-23T14:18:37.123Z,98700.91
2018-12-23T14:20:48.058Z,98690.22
2018-12-23T14:22:59.049Z,98676.44
2018-12-23T14:25:09.998Z,98674.31
2018-12-23T14:27:20.976Z,98664.54
2018-12-23T14:29:32.031Z,98660.66
2018-12-23T14:31:42.989Z,98658.12
2018-12-23T14:33:54.041Z,98654.31
2018-12-23T14:36:04.968Z,98642.88
2018-12-23T14:38:15.914Z,98639.05
2018-12-23T14:40:26.834Z,98634.33
2018-12-23T14:42:37.782Z,98630.91
2018-12-23T14:44:48.827Z,98622.90
2018-12-23T14:46:59.761Z,98619.94
2018-12-23T14:49:10.721Z,98618.18
2018-12-23T14:51:21.778Z,98607.04
2018-12-23T14:53:32.726Z,98608.28
2018-12-23T14:55:43.689Z,98604.41
2018-12-23T14:57:54.625Z,98596.36
2018-12-23T15:00:47.246Z,98595.34
2018-12-23T15:02:58.160Z,98583.23
2018-12-23T15:05:09.227Z,98577.35
2018-12-23T15:07:20.184Z,98572.45
2018-12-23T15:09:34.432Z,98566.57
2018-12-23T15:11:43.953Z,98561.31
2018-12-23T15:13:54.898Z,98563.84
2018-12-23T15:16:05.868Z,98548.53
2018-12-23T15:18:16.800Z,98551.88
2018-12-23T15:20:27.755Z,98547.48
2018-12-23T15:22:38.698Z,98545.27
2018-12-23T15:24:49.747Z,98529.36
2018-12-23T15:27:00.693Z,98525.67
2018-12-23T15:29:11.731Z,98522.48
2018-12-23T15:31:22.709Z,98519.52
2018-12-23T15:33:33.694Z,98515.78
2018-12-23T15:35:44.651Z,98512.58
2018-12-23T15:37:55.546Z,98503.73
2018-12-23T15:40:06.516Z,98493.67
2018-12-23T15:42:17.485Z,98491.78
2018-12-23T15:44:28.422Z,98486.33
2018-12-23T15:46:39.482Z,98480.36
2018-12-23T15:48:50.428Z,98483.65
2018-12-23T15:51:01.390Z,98475.66
2018-12-23T15:53:12.346Z,98471.78
2018-12-23T15:55:23.309Z,98476.13
2018-12-23T15:57:34.281Z,98475.89
2018-12-23T15:59:45.398Z,98467.06
2018-12-23T16:01:56.451Z,98471.88
2018-12-23T16:04:07.382Z,98455.97
2018-12-23T16:06:18.349Z,98445.53
2018-12-23T16:08:29.301Z,98448.20
2018-12-23T16:10:40.273Z,98439.89
2018-12-23T16:12:51.224Z,98442.94
2018-12-23T16:15:43.811Z,98438.45
2018-12-23T16:17:54.781Z,98436.84
2018-12-23T16:20:47.360Z,98431.52
2018-12-23T16:22:58.312Z,98429.91
2018-12-23T16:25:09.242Z,98424.22
2018-12-23T16:27:20.224Z,98411.19
2018-12-23T16:29:31.190Z,98413.95
2018-12-23T16:31:42.130Z,98417.66
2018-12-23T16:33:53.090Z,98414.41
2018-12-23T16:36:04.135Z,98412.20
2018-12-23T16:38:15.083Z,98407.80
2018-12-23T16:40:26.054Z,98406.88
2018-12-23T16:42:36.977Z,98410.67
2018-12-23T16:44:47.923Z,98408.25
2018-12-23T16:46:58.876Z,98397.44
2018-12-23T16:49:09.930Z,98396.92
2018-12-23T16:51:21.018Z,98392.34
2018-12-23T16:53:31.961Z,98392.28
2018-12-23T16:55:42.908Z,98395.98
2018-12-23T16:57:53.839Z,98387.17
2018-12-23T17:00:46.442Z,98385.80
2018-12-23T17:02:57.386Z,98381.75
2018-12-23T17:05:08.352Z,98369.27
2018-12-23T17:07:19.301Z,98366.91
2018-12-23T17:09:30.261Z,98360.48
2018-12-23T17:11:41.244Z,98360.11
2018-12-23T17:13:52.193Z,98362.64
2018-12-23T17:16:03.140Z,98357.38
2018-12-23T17:18:14.095Z,98355.47
2018-12-23T17:20:25.063Z,98352.35
2018-12-23T17:22:35.990Z,98356.36
2018-12-23T17:24:47.023Z,98355.44
2018-12-23T17:26:57.995Z,98351.80
2018-12-23T17:29:08.944Z,98348.20
2018-12-23T17:31:19.871Z,98336.78
2018-12-23T17:33:30.790Z,98333.02
2018-12-23T17:35:41.765Z,98339.71
2018-12-23T17:37:52.696Z,98346.70
2018-12-23T17:40:45.323Z,98346.92
2018-12-23T17:42:56.273Z,98340.03
2018-12-23T17:45:07.200Z,98342.41
2018-12-23T17:47:18.181Z,98351.31
2018-12-23T17:49:29.125Z,98351.31
2018-12-23T17:51:40.080Z,98353.41
2018-12-23T17:53:51.024Z,98344.94
2018-12-23T17:56:01.939Z,98336.73
2018-12-23T17:58:12.924Z,98349.45
2018-12-23T18:00:23.857Z,98349.19
2018-12-23T18:02:34.803Z,98340.41
2018-12-23T18:04:45.765Z,98324.13
2018-12-23T18:07:03.680Z,98329.97
2018-12-23T18:09:09.628Z,98330.28
2018-12-23T18:11:20.570Z,98336.09
2018-12-23T18:13:31.529Z,98321.27
2018-12-23T18:15:42.471Z,98329.64
2018-12-23T18:17:53.404Z,98329.64
2018-12-23T18:20:46.010Z,98321.95
2018-12-23T18:22:56.939Z,98324.69
2018-12-23T18:25:07.908Z,98319.49
2018-12-23T18:27:18.819Z,98320.16
2018-12-23T18:29:29.774Z,98313.03
2018-12-23T18:31:40.702Z,98326.67
2018-12-23T18:33:51.645Z,98332.89
2018-12-23T18:36:02.701Z,98328.06
2018-12-23T18:38:13.630Z,98330.95
2018-12-23T18:40:24.566Z,98339.41
2018-12-23T18:42:35.525Z,98334.88
2018-12-23T18:44:46.474Z,98332.28
2018-12-23T18:46:57.447Z,98335.53
2018-12-23T18:49:08.389Z,98335.36
2018-12-23T18:51:19.325Z,98334.43
2018-12-23T18:53:30.261Z,98331.36
2018-12-23T18:57:58.273Z,98331.94
2018-12-23T19:00:50.852Z,98336.02
2018-12-23T19:03:01.910Z,98333.62
2018-12-23T19:05:12.897Z,98334.84
2018-12-23T19:07:23.842Z,98339.84
2018-12-23T19:10:16.449Z,98337.63
2018-12-23T19:13:07.120Z,98334.64
2018-12-23T19:15:57.798Z,98328.27
2018-12-23T19:18:50.400Z,98331.23
2018-12-23T19:21:43.346Z,98330.69
2018-12-23T19:24:35.990Z,98335.05
2018-12-23T19:27:26.704Z,98340.51
2018-12-23T19:30:19.260Z,98336.18
2018-12-23T19:32:51.996Z,98332.47
2018-12-23T19:35:44.627Z,98327.74
2018-12-23T19:38:17.350Z,98328.94
2018-12-23T19:41:08.018Z,98325.41
2018-12-23T19:43:58.699Z,98327.09
2018-12-23T19:49:11.318Z,98327.28
2018-12-23T19:52:03.902Z,98331.66
2018-12-23T19:54:54.573Z,98338.80
2018-12-23T19:57:45.257Z,98334.63
2018-12-23T20:00:37.835Z,98334.34
2018-12-23T20:03:28.529Z,98321.92
2018-12-23T20:06:19.224Z,98326.55
2018-12-23T20:09:09.901Z,98324.70
2018-12-23T20:12:00.567Z,98322.76
2018-12-23T20:14:53.357Z,98328.78
2018-12-23T20:17:45.955Z,98333.80
2018-12-23T20:20:36.685Z,98326.38
2018-12-23T20:23:27.394Z,98317.56
2018-12-23T20:26:18.089Z,98316.34
2018-12-23T20:29:08.776Z,98318.76
2018-12-23T20:32:01.398Z,98307.17
2018-12-23T20:34:53.948Z,98300.48
2018-12-23T20:37:46.539Z,98308.72
2018-12-23T20:40:39.138Z,98310.59
2018-12-23T20:43:29.785Z,98321.28
2018-12-23T20:46:20.488Z,98315.98
2018-12-23T20:49:11.174Z,98308.75
2018-12-23T20:52:01.894Z,98310.70
2018-12-23T20:54:54.444Z,98310.41
2018-12-23T20:57:47.035Z,98306.33
2018-12-23T21:00:39.626Z,98302.67
2018-12-23T21:03:32.496Z,98295.53
2018-12-23T21:06:23.151Z,98294.23
2018-12-23T21:09:15.757Z,98290.91
2018-12-23T21:12:06.430Z,98294.80
2018-12-23T21:14:59.015Z,98293.33
2018-12-23T21:17:51.633Z,98292.85
2018-12-23T21:20:44.221Z,98294.05
2018-12-23T21:23:34.909Z,98293.39
2018-12-23T21:26:25.596Z,98286.81
2018-12-23T21:29:18.160Z,98285.33
2018-12-23T21:32:10.740Z,98283.45
2018-12-23T21:35:01.443Z,98284.67
2018-12-23T21:37:52.097Z,98281.95
2018-12-23T21:40:42.800Z,98279.20
2018-12-23T21:43:33.462Z,98289.78
2018-12-23T21:46:24.267Z,98280.84
2018-12-23T21:49:16.856Z,98272.10
2018-12-23T21:52:07.531Z,98278.34
2018-12-23T21:55:00.156Z,98274.52
2018-12-23T21:57:52.689Z,98254.17
2018-12-23T22:00:45.262Z,98251.84
2018-12-23T22:03:37.828Z,98252.68
2018-12-23T22:06:30.431Z,98254.26
2018-12-23T22:09:23.040Z,98262.42
2018-12-23T22:12:15.638Z,98256.75
2018-12-23T22:14:26.610Z,98258.52
2018-12-23T22:16:37.562Z,98253.13
2018-12-23T22:18:48.481Z,98247.34
2018-12-23T22:20:59.440Z,98237.52
2018-12-23T22:23:10.403Z,98235.27
2018-12-23T22:25:21.351Z,98225.22
2018-12-23T22:27:32.312Z,98234.72
2018-12-23T22:29:43.234Z,98231.37
2018-12-23T22:31:54.216Z,98224.20
2018-12-23T22:34:05.155Z,98225.50
2018-12-23T22:36:16.114Z,98227.16
2018-12-23T22:38:27.183Z,98225.69
2018-12-23T22:41:19.773Z,98216.34
2018-12-23T22:43:30.744Z,98209.36
2018-12-23T22:45:41.691Z,98214.65
2018-12-23T22:47:52.658Z,98210.11
2018-12-23T22:50:03.568Z,98205.38
2018-12-23T22:52:14.607Z,98206.59
2018-12-23T22:54:25.533Z,98202.78
2018-12-23T22:56:36.466Z,98203.25
2018-12-23T22:58:47.419Z,98200.37
2018-12-23T23:00:58.476Z,98190.55
2018-12-23T23:03:09.504Z,98186.64
2018-12-23T23:05:20.396Z,98196.11
2018-12-23T23:07:31.367Z,98195.75
2018-12-23T23:09:42.312Z,98193.03
2018-12-23T23:11:53.245Z,98187.83
2018-12-23T23:14:04.188Z,98169.81
2018-12-23T23:16:15.152Z,98195.33
2018-12-23T23:18:26.098Z,98183.27
2018-12-23T23:20:37.108Z,98170.25
2018-12-23T23:22:48.039Z,98164.86
2018-12-23T23:24:58.986Z,98155.20
2018-12-23T23:27:10.051Z,98159.97
2018-12-23T23:29:21.067Z,98163.13
2018-12-23T23:31:32.006Z,98152.44
2018-12-23T23:33:42.987Z,98152.33
2018-12-23T23:35:53.907Z,98143.61
2018-12-23T23:38:04.839Z,98154.73
2018-12-23T23:40:15.802Z,98141.72
2018-12-23T23:42:26.723Z,98150.47
2018-12-23T23:44:37.667Z,98143.85
2018-12-23T23:46:48.652Z,98133.00
2018-12-23T23:48:59.581Z,98131.03
2018-12-23T23:51:10.522Z,98139.27
2018-12-23T23:53:21.456Z,98122.00
2018-12-23T23:55:32.422Z,98119.05
2018-12-23T23:57:43.324Z,98111.23
2018-12-23T23:59:54.285Z,98105.48
